Time;durP1;ratioP1;P1;durP2;ratioP2;P2;SDS_P1;SDS_P2;PMS_P1;PMS_P2;Temp;Humidity;BMP_temperature;BMP_pressure;BME280_temperature;BME280_humidity;BME280_pressure;Samples;Min_cycle;Max_cycle;Signal;HPM_P1;HPM_P2
2022/03/11 00:01:29;;;;;;;1.15;0.98;;;24.60;35.70;;;;;;4945428;28;20055;-53
2022/03/11 00:03:57;;;;;;;1.60;1.45;;;24.60;35.70;;;;;;4946627;28;20069;-52
2022/03/11 00:06:24;;;;;;;1.52;1.35;;;24.60;35.80;;;;;;4947700;28;20054;-50
2022/03/11 00:08:51;;;;;;;1.58;1.48;;;24.60;35.90;;;;;;4947464;28;20055;-48
2022/03/11 00:11:18;;;;;;;4.38;1.20;;;24.60;36.00;;;;;;4947387;28;20047;-52
2022/03/11 00:13:45;;;;;;;2.40;1.42;;;24.60;36.00;;;;;;4947545;28;20074;-51
2022/03/11 00:16:13;;;;;;;1.88;1.60;;;24.70;36.10;;;;;;4948825;28;20079;-50
2022/03/11 00:18:41;;;;;;;1.20;1.05;;;24.60;36.00;;;;;;4947139;28;20039;-50
2022/03/11 00:21:12;;;;;;;2.88;1.40;;;24.60;36.00;;;;;;4949525;28;20142;-52
2022/03/11 00:23:39;;;;;;;3.25;1.73;;;24.60;35.90;;;;;;4951424;28;20403;-51
2022/03/11 00:26:06;;;;;;;1.25;1.15;;;24.60;35.90;;;;;;4951292;28;20582;-53
2022/03/11 00:28:33;;;;;;;2.92;1.65;;;24.60;35.80;;;;;;4951661;28;20500;-54
2022/03/11 00:31:03;;;;;;;0.88;0.88;;;24.60;35.80;;;;;;4951684;28;20129;-50
2022/03/11 00:33:30;;;;;;;3.38;1.58;;;24.60;35.80;;;;;;4951000;28;20047;-54
2022/03/11 00:35:59;;;;;;;5.50;1.63;;;24.60;36.40;;;;;;4949136;28;20554;-53
2022/03/11 00:38:27;;;;;;;2.65;1.30;;;24.60;35.90;;;;;;4950528;28;20543;-51
2022/03/11 00:40:56;;;;;;;3.22;1.38;;;24.50;35.80;;;;;;4951107;28;20047;-50
2022/03/11 00:43:23;;;;;;;1.10;1.10;;;24.50;35.80;;;;;;4952326;28;20150;-51
2022/03/11 00:45:50;;;;;;;2.38;1.52;;;24.50;35.90;;;;;;4950272;28;20122;-51
2022/03/11 00:48:17;;;;;;;1.35;1.25;;;24.50;35.80;;;;;;4950554;28;20054;-53
2022/03/11 00:50:45;;;;;;;1.85;1.45;;;24.50;35.90;;;;;;4951098;28;20045;-55
2022/03/11 00:53:13;;;;;;;3.08;1.10;;;24.50;35.90;;;;;;4950800;28;20127;-50
2022/03/11 00:55:40;;;;;;;2.70;1.33;;;24.50;35.90;;;;;;4951114;29;20055;-51
2022/03/11 00:58:08;;;;;;;1.52;1.42;;;24.50;35.90;;;;;;4952013;28;20706;-51
2022/03/11 01:00:35;;;;;;;1.60;1.35;;;24.50;35.80;;;;;;4950818;28;20078;-52
2022/03/11 01:03:02;;;;;;;1.38;1.17;;;24.40;36.00;;;;;;4950560;28;20047;-49
2022/03/11 01:05:29;;;;;;;1.50;1.40;;;24.40;36.00;;;;;;4950649;29;20043;-49
2022/03/11 01:07:58;;;;;;;1.38;1.27;;;24.40;36.00;;;;;;4950288;28;20079;-54
2022/03/11 01:10:26;;;;;;;1.23;1.10;;;24.40;36.00;;;;;;4951048;28;20043;-51
2022/03/11 01:12:53;;;;;;;1.13;0.90;;;24.50;36.00;;;;;;4950073;28;20047;-54
2022/03/11 01:15:20;;;;;;;2.80;1.10;;;24.40;36.00;;;;;;4949964;28;20511;-54
2022/03/11 01:17:47;;;;;;;1.98;0.85;;;24.40;36.00;;;;;;4950365;28;20055;-54
2022/03/11 01:20:15;;;;;;;2.08;1.98;;;24.40;36.10;;;;;;4950873;28;20050;-56
2022/03/11 01:22:42;;;;;;;1.30;0.90;;;24.40;36.20;;;;;;4951549;28;20047;-55
2022/03/11 01:25:10;;;;;;;2.80;1.45;;;24.40;36.20;;;;;;4952244;28;20075;-55
2022/03/11 01:27:38;;;;;;;2.50;0.80;;;24.40;36.10;;;;;;4948349;28;20111;-51
2022/03/11 01:30:09;;;;;;;0.93;0.63;;;24.40;36.20;;;;;;4950298;28;20038;-55
2022/03/11 01:32:36;;;;;;;0.85;0.85;;;24.40;36.20;;;;;;4950148;28;20039;-55
2022/03/11 01:35:04;;;;;;;0.88;0.80;;;24.40;36.20;;;;;;4948174;28;20051;-53
2022/03/11 01:37:31;;;;;;;2.17;1.25;;;24.40;36.20;;;;;;4952362;29;20147;-51
2022/03/11 01:39:58;;;;;;;1.00;1.00;;;24.40;36.20;;;;;;4950613;28;20053;-50
2022/03/11 01:42:25;;;;;;;2.40;1.02;;;24.40;36.20;;;;;;4949714;28;20043;-51
2022/03/11 01:44:54;;;;;;;2.35;1.08;;;24.40;36.20;;;;;;4949844;28;20035;-50
2022/03/11 01:47:21;;;;;;;2.20;0.88;;;24.30;36.20;;;;;;4950237;28;20059;-51
2022/03/11 01:49:48;;;;;;;1.80;1.30;;;24.40;36.40;;;;;;4950119;28;20097;-50
2022/03/11 01:52:15;;;;;;;2.22;1.50;;;24.40;36.60;;;;;;4951374;28;20469;-54
2022/03/11 01:54:44;;;;;;;2.25;1.02;;;24.30;36.60;;;;;;4949474;28;20047;-52
2022/03/11 01:57:12;;;;;;;3.13;0.80;;;24.30;36.60;;;;;;4944745;28;20847;-50
2022/03/11 01:59:43;;;;;;;1.10;1.00;;;24.30;36.60;;;;;;4949761;28;20538;-53
2022/03/11 02:02:12;;;;;;;1.05;0.95;;;24.30;36.60;;;;;;4943076;28;20051;-49
2022/03/11 02:04:41;;;;;;;2.33;1.10;;;24.30;36.60;;;;;;4949914;28;20050;-51
2022/03/11 02:07:08;;;;;;;1.35;1.30;;;24.30;36.60;;;;;;4950297;28;20059;-52
2022/03/11 02:09:35;;;;;;;1.60;1.05;;;24.30;36.60;;;;;;4949348;28;20043;-50
2022/03/11 02:12:02;;;;;;;1.48;1.25;;;24.30;36.90;;;;;;4944338;28;20131;-49
2022/03/11 02:14:29;;;;;;;5.43;1.33;;;24.30;36.70;;;;;;4949079;29;20047;-51
2022/03/11 02:16:56;;;;;;;2.60;1.13;;;24.30;36.80;;;;;;4949605;28;20042;-53
2022/03/11 02:19:24;;;;;;;1.25;1.15;;;24.20;36.80;;;;;;4951169;28;20045;-50
2022/03/11 02:21:53;;;;;;;1.13;1.02;;;24.30;36.90;;;;;;4947669;28;20085;-50
2022/03/11 02:24:27;;;;;;;1.35;0.88;;;24.30;36.90;;;;;;4945129;28;20058;-51
2022/03/11 02:26:55;;;;;;;2.22;1.20;;;24.20;36.80;;;;;;4948657;28;20047;-50
2022/03/11 02:29:22;;;;;;;1.17;0.85;;;24.20;36.80;;;;;;4942915;28;20040;-50
2022/03/11 02:31:49;;;;;;;3.17;1.42;;;24.20;36.80;;;;;;4948901;28;20050;-52
2022/03/11 02:34:16;;;;;;;1.40;1.33;;;24.20;36.70;;;;;;4947911;28;20035;-50
2022/03/11 02:36:43;;;;;;;1.17;1.08;;;24.20;36.80;;;;;;4948744;28;20507;-51
2022/03/11 02:39:10;;;;;;;2.22;0.93;;;24.20;36.70;;;;;;4948897;28;20044;-50
2022/03/11 02:41:42;;;;;;;1.30;0.68;;;24.20;37.30;;;;;;4948736;28;20428;-53
2022/03/11 02:44:10;;;;;;;1.58;1.30;;;24.20;36.80;;;;;;4947758;28;20047;-52
2022/03/11 02:46:37;;;;;;;1.33;1.23;;;24.10;36.70;;;;;;4949269;28;20043;-52
2022/03/11 02:49:05;;;;;;;1.02;0.95;;;24.20;36.70;;;;;;4950105;28;20150;-50
2022/03/11 02:51:32;;;;;;;0.75;0.60;;;24.10;36.70;;;;;;4948950;28;20147;-52
2022/03/11 02:54:00;;;;;;;1.30;1.20;;;24.20;36.70;;;;;;4948351;28;20041;-52
2022/03/11 02:56:27;;;;;;;0.73;0.73;;;24.10;36.70;;;;;;4948049;28;20127;-55
2022/03/11 02:58:55;;;;;;;1.30;1.00;;;24.10;37.20;;;;;;4948641;28;20039;-53
2022/03/11 03:01:22;;;;;;;1.58;0.75;;;24.10;36.50;;;;;;4950209;28;20063;-54
2022/03/11 03:03:57;;;;;;;2.03;1.60;;;24.10;36.60;;;;;;5143114;27;20403;-50
2022/03/11 03:06:25;;;;;;;1.05;1.05;;;24.10;36.60;;;;;;5126353;27;20113;-49
2022/03/11 03:08:51;;;;;;;1.83;1.73;;;24.10;36.60;;;;;;5142445;27;20039;-50
2022/03/11 03:11:19;;;;;;;1.00;0.70;;;24.00;36.60;;;;;;5131108;27;20043;-50
2022/03/11 03:13:46;;;;;;;0.70;0.65;;;24.00;36.60;;;;;;5137113;27;20044;-51
2022/03/11 03:16:13;;;;;;;1.42;1.05;;;24.00;36.60;;;;;;5150088;27;20049;-53
2022/03/11 03:18:40;;;;;;;1.10;0.60;;;24.00;36.60;;;;;;5137819;27;20042;-49
2022/03/11 03:21:10;;;;;;;1.20;1.10;;;24.00;36.60;;;;;;5144457;27;20043;-50
2022/03/11 03:23:37;;;;;;;4.35;0.52;;;23.90;36.60;;;;;;5138575;27;20034;-52
2022/03/11 03:26:04;;;;;;;2.05;1.00;;;23.90;36.70;;;;;;5129098;27;20078;-51
2022/03/11 03:28:31;;;;;;;1.15;1.05;;;23.90;36.70;;;;;;5134195;27;20040;-51
2022/03/11 03:30:59;;;;;;;2.30;0.82;;;23.90;36.70;;;;;;5149805;27;20127;-53
2022/03/11 03:33:26;;;;;;;1.20;1.15;;;23.90;36.70;;;;;;5139554;27;20027;-50
2022/03/11 03:35:53;;;;;;;2.17;0.73;;;23.80;36.70;;;;;;5139329;27;20052;-50
2022/03/11 03:38:21;;;;;;;0.77;0.77;;;23.80;36.70;;;;;;5125394;27;20044;-52
2022/03/11 03:40:48;;;;;;;1.23;0.93;;;23.80;36.70;;;;;;5140812;27;20188;-50
2022/03/11 03:43:15;;;;;;;0.55;0.55;;;23.80;36.70;;;;;;5145166;27;20043;-54
2022/03/11 03:45:42;;;;;;;0.98;0.98;;;23.80;36.80;;;;;;5141482;27;20032;-51
2022/03/11 03:48:09;;;;;;;1.25;0.95;;;23.70;36.80;;;;;;5134577;27;20027;-51
2022/03/11 03:50:37;;;;;;;1.77;1.48;;;23.70;36.70;;;;;;5128805;27;20043;-52
2022/03/11 03:53:04;;;;;;;1.23;0.55;;;23.70;36.80;;;;;;5113988;27;20069;-50
2022/03/11 03:55:32;;;;;;;1.35;1.17;;;23.70;36.80;;;;;;5138141;27;20155;-51
2022/03/11 03:57:59;;;;;;;2.35;1.30;;;23.70;36.80;;;;;;5143525;27;20503;-48
2022/03/11 04:00:27;;;;;;;0.80;0.80;;;23.70;36.80;;;;;;5135182;27;20032;-53
2022/03/11 04:02:54;;;;;;;1.05;0.80;;;23.60;36.80;;;;;;5139021;27;20061;-49
2022/03/11 04:05:21;;;;;;;2.38;0.90;;;23.60;36.80;;;;;;5136786;27;20036;-49
2022/03/11 04:07:49;;;;;;;0.95;0.70;;;23.60;36.90;;;;;;5129801;27;20035;-52
2022/03/11 04:10:17;;;;;;;0.98;0.47;;;23.60;37.00;;;;;;5134427;27;20462;-51
2022/03/11 04:12:46;;;;;;;1.60;0.98;;;23.60;37.00;;;;;;5127695;27;20037;-52
2022/03/11 04:15:13;;;;;;;0.80;0.80;;;23.50;37.10;;;;;;5123839;27;20028;-49
2022/03/11 04:17:40;;;;;;;0.70;0.47;;;23.50;37.20;;;;;;5100825;27;20031;-49
2022/03/11 04:20:09;;;;;;;1.08;1.00;;;23.50;37.30;;;;;;5119721;27;20039;-49
2022/03/11 04:22:41;;;;;;;0.55;0.55;;;23.50;37.40;;;;;;5126381;27;20043;-49
2022/03/11 04:25:10;;;;;;;0.75;0.50;;;23.50;37.40;;;;;;5126978;27;20031;-51
2022/03/11 04:27:37;;;;;;;0.57;0.55;;;23.50;37.40;;;;;;5126759;27;20465;-50
2022/03/11 04:30:06;;;;;;;0.88;0.50;;;23.40;37.50;;;;;;5121381;27;20118;-49
2022/03/11 04:32:34;;;;;;;0.60;0.60;;;23.40;37.60;;;;;;5119737;27;20039;-50
2022/03/11 04:35:01;;;;;;;2.00;1.00;;;23.40;37.60;;;;;;5127376;27;20037;-50
2022/03/11 04:37:28;;;;;;;1.63;0.90;;;23.40;37.60;;;;;;5125428;27;20066;-50
2022/03/11 04:39:57;;;;;;;2.25;0.88;;;23.40;37.50;;;;;;5120531;27;20035;-52
2022/03/11 04:42:24;;;;;;;0.65;0.47;;;23.30;37.50;;;;;;5119473;27;20124;-49
2022/03/11 04:44:51;;;;;;;1.45;0.75;;;23.30;37.60;;;;;;5123119;27;20122;-51
2022/03/11 04:47:19;;;;;;;0.75;0.70;;;23.30;37.60;;;;;;5123304;27;20039;-49
2022/03/11 04:49:46;;;;;;;1.95;0.95;;;23.30;37.60;;;;;;5129279;27;20792;-51
2022/03/11 04:52:14;;;;;;;2.45;1.25;;;23.30;37.70;;;;;;5117899;27;20040;-50
2022/03/11 04:54:41;;;;;;;0.90;0.90;;;23.30;37.70;;;;;;5131552;27;20580;-49
2022/03/11 04:57:08;;;;;;;0.52;0.52;;;23.20;37.60;;;;;;5117604;27;20183;-49
2022/03/11 04:59:35;;;;;;;0.77;0.75;;;23.20;37.60;;;;;;5114470;27;20491;-49
2022/03/11 05:02:02;;;;;;;0.60;0.60;;;23.20;37.70;;;;;;5119694;27;20126;-50
2022/03/11 05:04:30;;;;;;;0.40;0.35;;;23.20;37.70;;;;;;5123100;27;20059;-48
2022/03/11 05:06:58;;;;;;;1.90;1.15;;;23.20;37.70;;;;;;5123107;27;20103;-49
2022/03/11 05:09:25;;;;;;;1.55;0.50;;;23.10;37.70;;;;;;5125174;27;20057;-49
2022/03/11 05:11:52;;;;;;;0.38;0.38;;;23.20;37.70;;;;;;5121198;27;20047;-50
2022/03/11 05:14:19;;;;;;;1.38;0.57;;;23.10;37.60;;;;;;5123375;27;20039;-49
2022/03/11 05:16:46;;;;;;;1.65;0.75;;;23.10;37.70;;;;;;5117365;27;20048;-50
2022/03/11 05:19:13;;;;;;;0.80;0.80;;;23.20;37.70;;;;;;5122176;27;20048;-49
2022/03/11 05:21:41;;;;;;;0.50;0.50;;;23.10;37.70;;;;;;5119118;27;20047;-51
2022/03/11 05:24:08;;;;;;;0.60;0.40;;;23.20;37.70;;;;;;5119947;27;20043;-49
2022/03/11 05:26:35;;;;;;;0.60;0.60;;;23.10;37.70;;;;;;5125046;27;20451;-50
2022/03/11 05:29:02;;;;;;;2.00;0.63;;;23.10;37.70;;;;;;5104329;27;20039;-51
2022/03/11 05:31:29;;;;;;;0.50;0.50;;;23.10;37.70;;;;;;5120336;27;20116;-52
2022/03/11 05:33:56;;;;;;;1.50;0.63;;;23.10;37.80;;;;;;5123470;27;20032;-49
2022/03/11 05:36:23;;;;;;;1.15;0.50;;;23.10;37.90;;;;;;5135141;27;20117;-51
2022/03/11 05:38:52;;;;;;;1.30;0.52;;;23.10;37.90;;;;;;5121177;27;20042;-53
2022/03/11 05:41:19;;;;;;;2.00;0.70;;;23.10;37.90;;;;;;5113269;27;20173;-52
2022/03/11 05:43:46;;;;;;;2.28;1.50;;;23.10;37.90;;;;;;5116918;27;20047;-50
2022/03/11 05:46:13;;;;;;;4.80;0.40;;;23.10;37.90;;;;;;5126269;27;20415;-53
2022/03/11 05:48:42;;;;;;;0.80;0.80;;;23.10;38.00;;;;;;5122297;27;20036;-48
2022/03/11 05:51:10;;;;;;;0.65;0.65;;;23.00;38.00;;;;;;5122820;27;20726;-52
2022/03/11 05:53:37;;;;;;;0.40;0.40;;;23.10;38.00;;;;;;5116700;27;20411;-52
2022/03/11 05:56:05;;;;;;;0.40;0.30;;;23.10;38.10;;;;;;5124724;27;20050;-53
2022/03/11 05:58:32;;;;;;;1.67;0.50;;;23.10;38.20;;;;;;5113353;27;20042;-53
2022/03/11 06:00:59;;;;;;;3.13;0.40;;;23.00;38.20;;;;;;5125900;27;20051;-52
2022/03/11 06:03:27;;;;;;;0.82;0.40;;;23.00;38.20;;;;;;5125662;27;20058;-52
2022/03/11 06:05:54;;;;;;;0.38;0.20;;;23.00;38.20;;;;;;5116916;27;20039;-51
2022/03/11 06:08:24;;;;;;;1.75;0.32;;;23.00;38.10;;;;;;5117354;27;20046;-53
2022/03/11 06:10:51;;;;;;;0.95;0.68;;;23.00;38.10;;;;;;5134796;27;20463;-55
2022/03/11 06:13:19;;;;;;;1.05;0.40;;;23.00;38.10;;;;;;5120223;27;20047;-54
2022/03/11 06:15:46;;;;;;;0.63;0.30;;;23.00;38.10;;;;;;5129506;27;20043;-53
2022/03/11 06:18:17;;;;;;;0.98;0.30;;;23.00;38.10;;;;;;5131763;27;20866;-53
2022/03/11 06:20:45;;;;;;;0.38;0.30;;;23.00;38.10;;;;;;5121808;27;20495;-54
2022/03/11 06:23:13;;;;;;;0.65;0.30;;;22.90;38.00;;;;;;5119587;27;20570;-52
2022/03/11 06:25:40;;;;;;;0.30;0.30;;;22.90;38.10;;;;;;5129492;27;20051;-51
2022/03/11 06:28:07;;;;;;;2.40;0.47;;;23.00;38.10;;;;;;5129047;27;20057;-51
2022/03/11 06:30:35;;;;;;;1.58;0.85;;;22.90;38.00;;;;;;5122652;27;20122;-49
2022/03/11 06:33:02;;;;;;;0.75;0.30;;;23.00;38.10;;;;;;5123636;27;20114;-49
2022/03/11 06:35:30;;;;;;;0.38;0.38;;;22.90;38.00;;;;;;5122816;27;20061;-50
2022/03/11 06:37:57;;;;;;;0.73;0.60;;;23.00;38.20;;;;;;5117878;27;20031;-49
2022/03/11 06:40:24;;;;;;;0.57;0.28;;;23.00;38.10;;;;;;5114001;27;20040;-52
2022/03/11 06:42:51;;;;;;;0.60;0.60;;;23.00;38.10;;;;;;5125941;27;20400;-55
2022/03/11 06:45:19;;;;;;;2.42;1.35;;;23.00;38.10;;;;;;5119493;27;20059;-51
2022/03/11 06:47:48;;;;;;;0.38;0.38;;;23.00;38.10;;;;;;5117209;27;20088;-53
2022/03/11 06:50:16;;;;;;;0.50;0.50;;;23.00;38.10;;;;;;5118557;27;20534;-54
2022/03/11 06:52:43;;;;;;;0.52;0.52;;;23.00;38.20;;;;;;5123137;27;20039;-51
2022/03/11 06:55:11;;;;;;;0.30;0.30;;;23.00;38.10;;;;;;5101927;27;20118;-52
2022/03/11 06:57:39;;;;;;;0.88;0.30;;;23.10;38.10;;;;;;5119758;27;20047;-51
2022/03/11 07:00:09;;;;;;;0.65;0.30;;;23.10;38.10;;;;;;5123061;27;20490;-54
2022/03/11 07:02:37;;;;;;;2.92;0.38;;;23.10;38.10;;;;;;5120588;27;20049;-53
2022/03/11 07:05:06;;;;;;;1.73;0.55;;;23.10;38.20;;;;;;5112184;28;20122;-52
2022/03/11 07:07:34;;;;;;;1.92;0.20;;;23.10;38.10;;;;;;5114200;27;20126;-52
2022/03/11 07:10:01;;;;;;;0.35;0.20;;;23.10;38.00;;;;;;5128066;27;20541;-50
2022/03/11 07:12:29;;;;;;;1.70;0.25;;;23.10;38.60;;;;;;5103166;28;20108;-51
2022/03/11 07:14:56;;;;;;;0.30;0.30;;;23.10;38.20;;;;;;5118232;27;20171;-51
2022/03/11 07:17:23;;;;;;;1.17;0.50;;;23.10;37.80;;;;;;5115408;27;20059;-49
2022/03/11 07:19:50;;;;;;;1.20;0.77;;;23.20;37.80;;;;;;5110470;27;20253;-52
2022/03/11 07:22:18;;;;;;;0.47;0.47;;;23.20;38.40;;;;;;5118422;27;20051;-53
2022/03/11 07:24:45;;;;;;;0.55;0.30;;;23.20;37.70;;;;;;5123453;27;20472;-50
2022/03/11 07:27:13;;;;;;;0.52;0.52;;;23.30;37.80;;;;;;5119914;27;20039;-50
2022/03/11 07:29:40;;;;;;;0.43;0.20;;;23.30;37.80;;;;;;5111981;27;20126;-50
2022/03/11 07:32:09;;;;;;;0.80;0.47;;;23.30;37.70;;;;;;5124461;27;20035;-49
2022/03/11 07:34:36;;;;;;;0.28;0.17;;;23.30;37.70;;;;;;5121088;28;20737;-49
2022/03/11 07:37:04;;;;;;;1.63;0.22;;;23.30;37.70;;;;;;5125662;28;20987;-49
2022/03/11 07:39:32;;;;;;;1.60;0.30;;;23.30;37.80;;;;;;5121632;27;21095;-49
2022/03/11 07:41:59;;;;;;;0.63;0.63;;;23.30;37.70;;;;;;5121248;27;20034;-48
2022/03/11 07:44:26;;;;;;;1.73;0.40;;;23.40;37.80;;;;;;5121296;27;20065;-50
2022/03/11 07:46:53;;;;;;;1.83;0.30;;;23.40;37.80;;;;;;5112505;27;20543;-48
2022/03/11 07:49:22;;;;;;;6.03;0.30;;;23.40;37.70;;;;;;5124754;27;20069;-55
2022/03/11 07:51:49;;;;;;;2.60;0.40;;;23.50;38.00;;;;;;5130763;27;20043;-58
2022/03/11 07:54:16;;;;;;;0.40;0.10;;;23.60;38.20;;;;;;5125985;27;20035;-58
2022/03/11 07:56:45;;;;;;;0.20;0.20;;;23.70;38.10;;;;;;5121918;27;20084;-56
2022/03/11 07:59:12;;;;;;;0.95;0.22;;;23.80;38.00;;;;;;5126406;27;20035;-47
2022/03/11 08:01:39;;;;;;;1.30;0.45;;;24.00;38.40;;;;;;5130427;27;20051;-54
2022/03/11 08:04:07;;;;;;;8.02;0.30;;;24.10;37.40;;;;;;5147412;27;20047;-48
2022/03/11 08:06:36;;;;;;;0.77;0.10;;;24.30;37.20;;;;;;5130990;27;20452;-48
2022/03/11 08:09:03;;;;;;;1.75;0.47;;;24.40;37.00;;;;;;5109646;27;20039;-54
2022/03/11 08:11:30;;;;;;;3.47;0.90;;;24.60;36.90;;;;;;5107332;27;20464;-54
2022/03/11 08:13:59;;;;;;;2.60;0.25;;;24.70;36.60;;;;;;5121981;27;20431;-53
2022/03/11 08:16:26;;;;;;;1.10;0.20;;;24.80;36.50;;;;;;5133588;27;20048;-54
2022/03/11 08:18:53;;;;;;;0.22;0.22;;;24.90;36.30;;;;;;5128405;27;20419;-54
2022/03/11 08:21:20;;;;;;;0.43;0.35;;;25.00;36.10;;;;;;5128338;27;20035;-54
2022/03/11 08:23:47;;;;;;;4.07;0.30;;;25.10;35.90;;;;;;5130547;27;20035;-54
2022/03/11 08:26:14;;;;;;;1.95;0.57;;;25.20;35.90;;;;;;5126899;27;20119;-51
2022/03/11 08:28:41;;;;;;;1.15;0.20;;;25.30;35.70;;;;;;5122142;27;20046;-49
2022/03/11 08:31:10;;;;;;;6.40;0.52;;;25.40;35.50;;;;;;5131740;27;20130;-52
2022/03/11 08:33:39;;;;;;;0.73;0.40;;;25.40;35.40;;;;;;5131251;27;20039;-63
2022/03/11 08:36:07;;;;;;;4.40;0.75;;;25.50;35.30;;;;;;5124207;27;20039;-54
2022/03/11 08:38:34;;;;;;;4.03;0.30;;;25.60;35.30;;;;;;5127045;27;20043;-52
2022/03/11 08:41:03;;;;;;;3.40;0.50;;;25.70;35.40;;;;;;5128937;27;20099;-52
2022/03/11 08:43:30;;;;;;;0.20;0.20;;;25.70;35.10;;;;;;5131841;27;20031;-52
2022/03/11 08:45:57;;;;;;;3.70;0.30;;;25.70;35.00;;;;;;5129633;27;20049;-50
2022/03/11 08:48:27;;;;;;;0.60;0.20;;;25.60;35.00;;;;;;5131532;27;20030;-49
2022/03/11 08:50:55;;;;;;;0.57;0.20;;;25.60;35.10;;;;;;5128140;27;20039;-52
2022/03/11 08:53:22;;;;;;;2.97;0.50;;;25.60;35.70;;;;;;5126718;27;20129;-51
2022/03/11 08:55:49;;;;;;;0.68;0.45;;;25.50;35.10;;;;;;5132485;27;20070;-53
2022/03/11 08:58:16;;;;;;;1.48;0.25;;;25.50;35.10;;;;;;5137590;27;20100;-51
2022/03/11 09:00:44;;;;;;;0.40;0.40;;;25.50;35.00;;;;;;5120657;27;20506;-52
2022/03/11 09:03:11;;;;;;;1.27;0.13;;;25.50;35.00;;;;;;5128800;27;20111;-50
2022/03/11 09:05:40;;;;;;;1.00;0.43;;;25.50;35.00;;;;;;5127804;27;20149;-54
2022/03/11 09:08:08;;;;;;;1.50;0.20;;;25.60;35.00;;;;;;5127159;27;20502;-56
2022/03/11 09:10:35;;;;;;;2.55;0.55;;;25.60;34.90;;;;;;5129110;27;20043;-56
2022/03/11 09:13:03;;;;;;;0.30;0.10;;;25.60;34.80;;;;;;5120624;27;20043;-57
2022/03/11 09:15:30;;;;;;;0.20;0.10;;;25.60;34.90;;;;;;5127429;27;20092;-51
2022/03/11 09:17:57;;;;;;;0.75;0.10;;;25.70;34.70;;;;;;5124662;27;20042;-54
2022/03/11 09:20:24;;;;;;;0.57;0.20;;;25.80;34.50;;;;;;5111818;27;20771;-55
2022/03/11 09:22:54;;;;;;;0.35;0.30;;;25.90;34.50;;;;;;5127519;27;20043;-53
2022/03/11 09:25:21;;;;;;;0.20;0.10;;;26.00;34.40;;;;;;5129176;27;20081;-58
2022/03/11 09:27:48;;;;;;;0.20;0.10;;;26.10;35.00;;;;;;5128996;27;20039;-61
2022/03/11 09:30:16;;;;;;;2.15;0.40;;;26.20;34.30;;;;;;5127401;27;20053;-56
2022/03/11 09:32:43;;;;;;;0.38;0.38;;;26.20;34.20;;;;;;5124962;27;20038;-62
2022/03/11 09:35:11;;;;;;;0.30;0.10;;;26.30;34.10;;;;;;5119581;27;20269;-62
2022/03/11 09:37:38;;;;;;;0.28;0.28;;;26.30;34.00;;;;;;5136457;27;20035;-63
2022/03/11 09:40:08;;;;;;;0.28;0.10;;;26.30;33.90;;;;;;5126033;27;20083;-58
2022/03/11 09:42:35;;;;;;;0.43;0.28;;;26.40;33.90;;;;;;5121822;27;20050;-64
2022/03/11 09:45:05;;;;;;;0.70;0.17;;;26.40;33.80;;;;;;5132861;27;20064;-54
2022/03/11 09:47:32;;;;;;;2.35;0.20;;;26.40;33.80;;;;;;5122852;27;20050;-50
2022/03/11 09:49:59;;;;;;;2.10;0.38;;;26.40;33.90;;;;;;5134064;27;20087;-52
2022/03/11 09:52:27;;;;;;;0.98;0.45;;;26.50;33.90;;;;;;5131590;27;20053;-50
2022/03/11 09:54:54;;;;;;;2.22;0.10;;;26.50;33.90;;;;;;5112540;27;20040;-52
2022/03/11 09:57:23;;;;;;;0.93;0.30;;;26.50;33.80;;;;;;5131000;27;20045;-46
2022/03/11 09:59:50;;;;;;;0.32;0.10;;;26.50;33.90;;;;;;5120938;27;20044;-47
2022/03/11 10:02:18;;;;;;;0.55;0.25;;;26.50;33.90;;;;;;5102982;27;20054;-53
2022/03/11 10:04:48;;;;;;;2.20;0.20;;;26.50;33.80;;;;;;5131263;27;20050;-55
2022/03/11 10:07:26;;;;;;;0.13;0.10;;;26.60;34.00;;;;;;5129085;27;20036;-50
2022/03/11 10:09:53;;;;;;;2.25;0.40;;;26.60;33.90;;;;;;5129486;27;20065;-50
2022/03/11 10:12:23;;;;;;;1.42;0.10;;;26.60;34.00;;;;;;5130878;27;20039;-47
2022/03/11 10:14:58;;;;;;;0.28;0.10;;;26.60;33.90;;;;;;5122339;27;20114;-51
2022/03/11 10:17:26;;;;;;;0.77;0.10;;;26.70;34.00;;;;;;5126820;27;20130;-51
2022/03/11 10:19:55;;;;;;;0.20;0.20;;;26.60;33.90;;;;;;5126924;27;20431;-52
2022/03/11 10:22:24;;;;;;;0.10;0.10;;;26.60;33.90;;;;;;5126261;27;20043;-51
2022/03/11 10:24:52;;;;;;;0.43;0.10;;;26.60;33.90;;;;;;5105655;27;20069;-52
2022/03/11 10:27:19;;;;;;;1.67;0.10;;;26.60;33.80;;;;;;5124866;27;20035;-51
2022/03/11 10:29:47;;;;;;;0.13;0.10;;;26.70;33.70;;;;;;5125799;27;20121;-51
2022/03/11 10:32:14;;;;;;;1.52;0.20;;;26.70;33.60;;;;;;5130348;27;20043;-51
2022/03/11 10:34:41;;;;;;;0.30;0.10;;;26.70;33.70;;;;;;5124767;27;20122;-53
2022/03/11 10:37:12;;;;;;;0.57;0.10;;;26.70;33.60;;;;;;5121918;27;20131;-55
2022/03/11 10:39:40;;;;;;;0.40;0.20;;;26.70;33.60;;;;;;5128357;27;20065;-54
2022/03/11 10:42:19;;;;;;;0.77;0.38;;;26.70;33.50;;;;;;5122953;27;20056;-55
2022/03/11 10:44:58;;;;;;;0.20;0.20;;;26.80;33.50;;;;;;5126996;27;20141;-54
2022/03/11 10:47:27;;;;;;;0.20;0.20;;;26.80;33.40;;;;;;5121339;27;20039;-53
2022/03/11 10:49:55;;;;;;;0.35;0.10;;;26.70;33.40;;;;;;5126761;27;20040;-56
2022/03/11 10:52:34;;;;;;;1.75;0.10;;;26.70;33.40;;;;;;5130014;27;20050;-54
2022/03/11 10:55:02;;;;;;;0.10;0.10;;;26.70;33.40;;;;;;5123840;27;20036;-56
2022/03/11 10:57:37;;;;;;;0.20;0.10;;;26.70;33.40;;;;;;5124713;27;20045;-56
2022/03/11 11:00:17;;;;;;;;;;;26.70;33.40;;;;;;5106828;27;20485;-56
2022/03/11 11:02:45;;;;;;;0.30;0.20;;;26.60;33.50;;;;;;5118447;27;19980;-55
2022/03/11 11:05:14;;;;;;;0.82;0.68;;;26.60;33.60;;;;;;5123304;27;20063;-56
2022/03/11 11:07:43;;;;;;;0.20;0.10;;;26.60;33.70;;;;;;5120873;27;20054;-51
2022/03/11 11:10:10;;;;;;;0.93;0.30;;;26.60;33.70;;;;;;5106148;28;20050;-52
2022/03/11 11:12:38;;;;;;;0.85;0.10;;;26.60;33.70;;;;;;5113037;27;20035;-53
2022/03/11 11:15:06;;;;;;;0.82;0.13;;;26.50;33.60;;;;;;5118474;27;20035;-55
2022/03/11 11:17:38;;;;;;;1.27;0.17;;;26.50;33.70;;;;;;5117274;28;20051;-54
2022/03/11 11:20:11;;;;;;;0.20;0.10;;;26.50;33.70;;;;;;5114324;28;20046;-51
2022/03/11 11:22:40;;;;;;;0.70;0.50;;;26.50;33.70;;;;;;5124322;27;20142;-56
2022/03/11 11:25:08;;;;;;;0.20;0.20;;;26.40;33.70;;;;;;5121983;27;20043;-57
2022/03/11 11:27:36;;;;;;;0.75;0.55;;;26.50;33.80;;;;;;5126352;27;20044;-53
2022/03/11 11:30:03;;;;;;;1.75;0.10;;;26.40;33.80;;;;;;5126691;27;20035;-54
2022/03/11 11:32:31;;;;;;;0.55;0.10;;;26.40;33.80;;;;;;5135020;27;20673;-57
2022/03/11 11:35:24;;;;;;;0.47;0.10;;;26.40;33.80;;;;;;5127901;27;20045;-55
2022/03/11 11:37:51;;;;;;;1.30;0.20;;;26.40;33.80;;;;;;5124303;27;20291;-57
2022/03/11 11:40:20;;;;;;;1.83;0.32;;;26.30;33.80;;;;;;5134590;27;20200;-53
2022/03/11 11:43:29;;;;;;;2.53;0.10;;;26.30;33.80;;;;;;5130055;27;20467;-53
2022/03/11 11:46:11;;;;;;;0.40;0.40;;;26.30;33.80;;;;;;5131310;27;20082;-51
2022/03/11 11:49:05;;;;;;;1.13;0.10;;;26.30;33.90;;;;;;5134350;27;20054;-52
2022/03/11 11:51:56;;;;;;;2.28;0.10;;;26.20;33.80;;;;;;5123126;27;20088;-54
2022/03/11 11:54:40;;;;;;;0.10;0.10;;;26.20;33.80;;;;;;5128916;27;20448;-54
2022/03/11 11:57:14;;;;;;;2.42;0.10;;;26.20;33.90;;;;;;5127579;27;20067;-51
2022/03/11 11:59:42;;;;;;;1.08;0.43;;;26.20;34.00;;;;;;5127787;27;20027;-51
2022/03/11 12:02:27;;;;;;;0.17;0.10;;;26.20;33.90;;;;;;5122633;27;20160;-54
2022/03/11 12:04:54;;;;;;;0.28;0.28;;;26.30;33.90;;;;;;5128413;27;20270;-51
2022/03/11 12:07:46;;;;;;;0.10;0.10;;;26.30;34.00;;;;;;5124095;27;20043;-53
2022/03/11 12:10:24;;;;;;;0.30;0.20;;;26.30;33.90;;;;;;5130120;27;20134;-51
2022/03/11 12:13:00;;;;;;;0.65;0.22;;;26.30;33.90;;;;;;5131146;27;20092;-55
2022/03/11 12:15:38;;;;;;;0.55;0.10;;;26.30;33.90;;;;;;5129957;27;20499;-53
2022/03/11 12:18:07;;;;;;;2.53;0.10;;;26.30;33.80;;;;;;5124547;27;20042;-54
2022/03/11 12:20:37;;;;;;;0.32;0.10;;;26.30;33.90;;;;;;5122289;27;20406;-54
2022/03/11 12:23:07;;;;;;;0.45;0.10;;;26.30;33.80;;;;;;5123134;27;20142;-53
2022/03/11 12:25:37;;;;;;;0.10;0.10;;;26.30;33.80;;;;;;5115863;27;20560;-52
2022/03/11 12:28:10;;;;;;;1.20;0.20;;;26.30;33.70;;;;;;5130508;27;20656;-54
2022/03/11 12:30:40;;;;;;;0.20;0.10;;;26.30;33.70;;;;;;5099251;27;20114;-54
2022/03/11 12:33:09;;;;;;;0.10;0.10;;;26.30;33.80;;;;;;5125928;27;20037;-54
2022/03/11 12:35:38;;;;;;;0.15;0.15;;;26.30;33.80;;;;;;5127764;27;20045;-55
2022/03/11 12:38:11;;;;;;;0.43;0.10;;;26.30;33.80;;;;;;5122819;27;20041;-53
2022/03/11 12:40:39;;;;;;;0.40;0.10;;;26.30;33.70;;;;;;5116022;27;20054;-53
2022/03/11 12:43:09;;;;;;;0.43;0.10;;;26.40;33.80;;;;;;5123278;27;20042;-54
2022/03/11 12:45:38;;;;;;;0.40;0.10;;;26.40;33.80;;;;;;5130818;27;20073;-56
2022/03/11 12:48:06;;;;;;;0.10;0.10;;;26.30;33.70;;;;;;5124395;27;20048;-57
2022/03/11 12:50:33;;;;;;;0.75;0.10;;;26.30;33.70;;;;;;5117499;27;20040;-57
2022/03/11 12:53:06;;;;;;;0.10;0.10;;;26.30;33.70;;;;;;5124894;27;20035;-52
2022/03/11 12:55:36;;;;;;;1.55;0.10;;;26.30;33.70;;;;;;5125135;27;20096;-53